createdAt,value
2022-08-11T00:01:18.115Z,21.10
2022-08-11T00:03:50.122Z,21.10
2022-08-11T00:06:29.107Z,21.00
2022-08-11T00:08:57.478Z,20.90
2022-08-11T00:11:33.980Z,20.90
2022-08-11T00:14:03.273Z,20.90
2022-08-11T00:16:30.967Z,20.90
2022-08-11T00:18:59.019Z,20.90
2022-08-11T00:21:54.714Z,20.90
2022-08-11T00:24:14.931Z,20.90
2022-08-11T00:26:48.725Z,20.90
2022-08-11T00:29:19.723Z,21.00
2022-08-11T00:31:53.604Z,20.90
2022-08-11T00:34:27.463Z,20.80
2022-08-11T00:37:00.343Z,20.80
2022-08-11T00:39:29.168Z,20.70
2022-08-11T00:42:28.240Z,20.70
2022-08-11T00:45:21.225Z,20.60
2022-08-11T00:48:07.766Z,20.60
2022-08-11T00:51:02.604Z,20.50
2022-08-11T00:53:47.001Z,20.60
2022-08-11T00:56:17.057Z,20.60
2022-08-11T00:59:05.683Z,20.50
2022-08-11T01:01:58.421Z,20.50
2022-08-11T01:05:01.861Z,20.40
2022-08-11T01:08:06.552Z,20.40
2022-08-11T01:11:15.609Z,20.40
2022-08-11T01:13:46.888Z,20.30
2022-08-11T01:16:35.543Z,20.40
2022-08-11T01:19:27.725Z,20.40
2022-08-11T01:22:24.845Z,20.50
2022-08-11T01:25:03.909Z,20.40
2022-08-11T01:28:08.820Z,20.30
2022-08-11T01:30:54.469Z,20.30
2022-08-11T01:33:56.680Z,20.30
2022-08-11T01:36:37.999Z,20.30
2022-08-11T01:39:19.859Z,20.20
2022-08-11T01:42:20.418Z,20.10
2022-08-11T01:45:24.258Z,20.10
2022-08-11T01:48:07.328Z,20.10
2022-08-11T01:50:43.384Z,20.00
2022-08-11T01:53:34.708Z,19.80
2022-08-11T01:56:29.584Z,19.70
2022-08-11T01:59:21.302Z,19.70
2022-08-11T02:02:50.728Z,19.80
2022-08-11T02:05:37.008Z,19.80
2022-08-11T02:08:33.643Z,19.80
2022-08-11T02:11:30.439Z,19.80
2022-08-11T02:14:22.476Z,19.60
2022-08-11T02:16:58.412Z,19.50
2022-08-11T02:19:53.304Z,19.50
2022-08-11T02:23:23.979Z,19.50
2022-08-11T02:26:16.061Z,19.30
2022-08-11T02:29:05.549Z,19.30
2022-08-11T02:32:23.886Z,19.40
2022-08-11T02:35:42.869Z,19.30
2022-08-11T02:38:31.149Z,19.20
2022-08-11T02:41:40.267Z,19.10
2022-08-11T02:44:33.726Z,19.10
2022-08-11T02:47:08.444Z,19.10
2022-08-11T02:50:07.403Z,19.00
2022-08-11T02:53:04.021Z,18.90
2022-08-11T02:55:57.410Z,18.80
2022-08-11T02:59:14.005Z,18.90
2022-08-11T03:02:11.028Z,18.80
2022-08-11T03:04:49.926Z,18.80
2022-08-11T03:08:00.103Z,18.90
2022-08-11T03:10:36.139Z,18.80
2022-08-11T03:13:40.444Z,18.90
2022-08-11T03:16:44.273Z,18.80
2022-08-11T03:19:14.193Z,18.80
2022-08-11T03:22:02.784Z,18.70
2022-08-11T03:24:46.473Z,18.70
2022-08-11T03:27:58.354Z,18.60
2022-08-11T03:30:49.885Z,18.60
2022-08-11T03:33:49.823Z,18.50
2022-08-11T03:37:15.422Z,18.40
2022-08-11T03:39:59.721Z,18.60
2022-08-11T03:43:03.519Z,18.40
2022-08-11T03:45:49.250Z,18.30
2022-08-11T03:48:41.984Z,18.30
2022-08-11T03:51:27.622Z,18.20
2022-08-11T03:54:43.340Z,18.30
2022-08-11T03:57:28.194Z,18.30
2022-08-11T04:00:35.700Z,18.20
2022-08-11T04:03:39.682Z,18.20
2022-08-11T04:06:28.470Z,18.20
2022-08-11T04:09:26.476Z,18.00
2022-08-11T04:12:36.318Z,18.00
2022-08-11T04:15:56.315Z,18.00
2022-08-11T04:18:53.739Z,18.00
2022-08-11T04:21:38.868Z,18.00
2022-08-11T04:24:39.636Z,18.00
2022-08-11T04:27:37.034Z,18.00
2022-08-11T04:30:17.570Z,18.00
2022-08-11T04:33:13.778Z,17.90
2022-08-11T04:35:50.945Z,17.90
2022-08-11T04:39:05.633Z,17.90
2022-08-11T04:42:16.314Z,17.90
2022-08-11T04:45:12.025Z,17.80
2022-08-11T04:48:38.421Z,17.80
2022-08-11T04:51:39.639Z,17.70
2022-08-11T04:54:45.129Z,17.70
2022-08-11T04:57:41.545Z,17.80
2022-08-11T05:00:30.708Z,17.80
2022-08-11T05:03:25.439Z,17.80
2022-08-11T05:06:24.776Z,17.90
2022-08-11T05:09:12.608Z,18.00
2022-08-11T05:12:01.855Z,18.00
2022-08-11T05:15:00.043Z,18.10
2022-08-11T05:18:15.673Z,18.00
2022-08-11T05:21:07.745Z,18.40
2022-08-11T05:23:54.785Z,18.30
2022-08-11T05:26:47.744Z,18.30
2022-08-11T05:29:50.564Z,18.30
2022-08-11T05:32:36.606Z,18.40
2022-08-11T05:35:05.813Z,18.40
2022-08-11T05:38:01.885Z,18.40
2022-08-11T05:40:51.334Z,18.50
2022-08-11T05:44:20.234Z,18.50
2022-08-11T05:46:47.629Z,18.50
2022-08-11T05:49:34.095Z,18.60
2022-08-11T05:52:31.822Z,18.70
2022-08-11T05:55:22.246Z,18.80
2022-08-11T05:57:51.865Z,18.80
2022-08-11T06:00:19.491Z,18.80
2022-08-11T06:02:51.610Z,18.80
2022-08-11T06:05:46.465Z,18.90
2022-08-11T06:08:17.011Z,19.10
2022-08-11T06:10:45.810Z,19.20
2022-08-11T06:13:16.641Z,19.30
2022-08-11T06:15:48.827Z,19.40
2022-08-11T06:18:17.044Z,19.50
2022-08-11T06:20:55.283Z,19.60
2022-08-11T06:23:25.417Z,19.70
2022-08-11T06:25:56.297Z,19.70
2022-08-11T06:28:33.048Z,19.90
2022-08-11T06:31:02.062Z,19.90
2022-08-11T06:33:43.936Z,20.00
2022-08-11T06:36:23.873Z,20.20
2022-08-11T06:38:53.569Z,20.30
2022-08-11T06:41:30.379Z,20.50
2022-08-11T06:44:05.655Z,20.70
2022-08-11T06:46:41.758Z,20.70
2022-08-11T06:49:30.472Z,20.90
2022-08-11T06:52:04.456Z,21.10
2022-08-11T06:54:41.466Z,21.10
2022-08-11T06:57:32.409Z,21.30
2022-08-11T07:00:28.150Z,21.40
2022-08-11T07:03:10.543Z,21.50
2022-08-11T07:05:55.955Z,21.60
2022-08-11T07:09:23.645Z,21.70
2022-08-11T07:12:18.111Z,21.80
2022-08-11T07:15:15.244Z,22.00
2022-08-11T07:17:49.804Z,22.10
2022-08-11T07:20:36.807Z,22.30
2022-08-11T07:23:26.607Z,22.40
2022-08-11T07:26:15.530Z,22.50
2022-08-11T07:29:00.837Z,22.70
2022-08-11T07:31:50.611Z,22.80
2022-08-11T07:34:35.969Z,23.00
2022-08-11T07:37:10.216Z,23.10
2022-08-11T07:39:39.302Z,23.30
2022-08-11T07:42:09.871Z,23.40
2022-08-11T07:45:00.361Z,23.50
2022-08-11T07:47:47.680Z,23.70
2022-08-11T07:50:33.793Z,23.70
2022-08-11T07:53:02.675Z,23.90
2022-08-11T07:55:49.052Z,24.10
2022-08-11T07:58:44.971Z,24.10
2022-08-11T08:01:39.981Z,24.20
2022-08-11T08:04:28.070Z,24.50
2022-08-11T08:07:14.701Z,24.70
2022-08-11T08:10:03.615Z,24.70
2022-08-11T08:12:50.464Z,24.80
2022-08-11T08:15:38.966Z,25.10
2022-08-11T08:18:09.629Z,25.10
2022-08-11T08:20:56.834Z,25.20
2022-08-11T08:23:33.997Z,25.40
2022-08-11T08:26:04.732Z,25.60
2022-08-11T08:28:33.592Z,25.70
2022-08-11T08:31:00.925Z,25.90
2022-08-11T08:33:30.365Z,26.00
2022-08-11T08:36:12.787Z,26.00
2022-08-11T08:38:42.948Z,26.10
2022-08-11T08:41:13.297Z,26.20
2022-08-11T08:43:49.599Z,26.20
2022-08-11T08:46:20.794Z,26.40
2022-08-11T08:48:49.234Z,26.70
2022-08-11T08:52:00.836Z,26.90
2022-08-11T08:54:34.194Z,26.70
2022-08-11T08:57:05.545Z,26.90
2022-08-11T08:59:47.513Z,27.00
2022-08-11T09:02:33.490Z,27.20
2022-08-11T09:05:04.710Z,27.20
2022-08-11T09:07:38.681Z,27.20
2022-08-11T09:10:09.712Z,27.10
2022-08-11T09:12:39.441Z,27.10
2022-08-11T09:15:10.181Z,27.10
2022-08-11T09:17:43.218Z,27.10
2022-08-11T09:20:24.782Z,27.50
2022-08-11T09:26:30.480Z,27.90
2022-08-11T09:28:59.739Z,28.00
2022-08-11T09:31:30.331Z,27.90
2022-08-11T09:33:58.782Z,27.90
2022-08-11T09:36:45.056Z,28.00
2022-08-11T09:39:32.315Z,28.20
2022-08-11T09:42:05.568Z,28.50
2022-08-11T09:44:48.855Z,28.60
2022-08-11T09:47:23.634Z,28.60
2022-08-11T09:49:53.840Z,28.60
2022-08-11T09:52:23.979Z,28.90
2022-08-11T09:54:52.337Z,28.90
2022-08-11T09:57:41.961Z,29.00
2022-08-11T10:00:13.600Z,28.90
2022-08-11T10:02:44.249Z,28.90
2022-08-11T10:05:32.152Z,29.20
2022-08-11T10:08:01.519Z,29.30
2022-08-11T10:10:29.976Z,29.30
2022-08-11T10:13:02.924Z,29.20
2022-08-11T10:15:35.065Z,29.10
2022-08-11T10:18:27.499Z,29.30
2022-08-11T10:21:21.585Z,29.40
2022-08-11T10:24:07.117Z,29.50
2022-08-11T10:26:53.845Z,29.50
2022-08-11T10:30:02.092Z,29.70
2022-08-11T10:32:58.583Z,29.70
2022-08-11T10:35:29.634Z,30.00
2022-08-11T10:38:07.916Z,30.10
2022-08-11T10:40:40.399Z,30.10
2022-08-11T10:43:14.293Z,30.10
2022-08-11T10:46:04.990Z,30.00
2022-08-11T10:48:41.326Z,30.20
2022-08-11T10:51:14.774Z,30.40
2022-08-11T10:54:05.831Z,30.60
2022-08-11T10:56:57.580Z,30.90
2022-08-11T10:59:28.183Z,30.80
2022-08-11T11:01:56.035Z,31.00
2022-08-11T11:04:51.325Z,31.00
2022-08-11T11:07:24.218Z,31.40
2022-08-11T11:09:56.142Z,31.40
2022-08-11T11:12:58.071Z,31.40
2022-08-11T11:15:45.980Z,31.30
2022-08-11T11:18:28.814Z,31.50
2022-08-11T11:21:04.512Z,31.30
2022-08-11T11:23:37.312Z,31.40
2022-08-11T11:26:27.189Z,31.80
2022-08-11T11:29:15.289Z,31.80
2022-08-11T11:32:09.028Z,32.30
2022-08-11T11:34:59.303Z,32.30
2022-08-11T11:37:26.596Z,32.10
2022-08-11T11:39:55.138Z,32.10
2022-08-11T11:42:22.977Z,31.80
2022-08-11T11:44:54.084Z,32.10
2022-08-11T11:47:23.365Z,32.20
2022-08-11T11:49:50.914Z,32.50
2022-08-11T11:52:21.241Z,32.90
2022-08-11T11:54:50.810Z,33.00
2022-08-11T11:57:38.000Z,33.10
2022-08-11T12:00:33.602Z,33.10
2022-08-11T12:03:03.850Z,32.80
2022-08-11T12:05:34.580Z,32.80
2022-08-11T12:08:16.298Z,32.60
2022-08-11T12:10:49.812Z,32.80
2022-08-11T12:13:47.500Z,33.10
2022-08-11T12:16:33.465Z,33.00
2022-08-11T12:19:11.576Z,33.40
2022-08-11T12:22:01.554Z,33.20
2022-08-11T12:24:49.729Z,33.30
2022-08-11T12:27:20.536Z,33.30
2022-08-11T12:30:05.948Z,33.10
2022-08-11T12:32:36.370Z,33.10
2022-08-11T12:35:05.094Z,33.10
2022-08-11T12:37:39.233Z,33.00
2022-08-11T12:40:43.494Z,33.10
2022-08-11T12:43:41.491Z,33.10
2022-08-11T12:46:12.612Z,32.90
2022-08-11T12:49:07.697Z,32.80
2022-08-11T12:52:14.533Z,33.20
2022-08-11T12:55:00.746Z,33.60
2022-08-11T12:57:49.463Z,33.90
2022-08-11T13:00:37.220Z,33.60
2022-08-11T13:03:26.361Z,33.50
2022-08-11T13:05:56.353Z,33.90
2022-08-11T13:08:25.592Z,34.10
2022-08-11T13:11:13.519Z,34.00
2022-08-11T13:13:54.868Z,34.10
2022-08-11T13:16:52.657Z,34.10
2022-08-11T13:19:21.656Z,33.10
2022-08-11T13:21:50.384Z,33.30
2022-08-11T13:24:18.554Z,33.40
2022-08-11T13:26:50.100Z,34.00
2022-08-11T13:29:22.826Z,33.90
2022-08-11T13:31:51.609Z,34.40
2022-08-11T13:34:20.445Z,34.40
2022-08-11T13:36:54.265Z,34.10
2022-08-11T13:39:24.243Z,34.10
2022-08-11T13:41:57.338Z,33.70
2022-08-11T13:44:27.654Z,33.40
2022-08-11T13:47:04.501Z,33.50
2022-08-11T13:49:36.031Z,33.70
2022-08-11T13:52:11.728Z,33.60
2022-08-11T13:54:41.113Z,33.70
2022-08-11T13:57:13.843Z,33.90
2022-08-11T14:00:09.749Z,34.00
2022-08-11T14:02:53.722Z,34.10
2022-08-11T14:05:27.474Z,33.90
2022-08-11T14:08:01.866Z,33.80
2022-08-11T14:10:32.992Z,33.80
2022-08-11T14:13:42.281Z,34.10
2022-08-11T14:16:43.001Z,34.40
2022-08-11T14:19:13.501Z,34.40
2022-08-11T14:22:07.351Z,34.30
2022-08-11T14:24:42.930Z,34.40
2022-08-11T14:28:30.424Z,34.20
2022-08-11T14:30:00.743Z,34.00
2022-08-11T14:32:27.926Z,33.90
2022-08-11T14:34:55.647Z,33.60
2022-08-11T14:37:25.300Z,33.70
2022-08-11T14:40:02.263Z,33.90
2022-08-11T14:42:49.429Z,34.00
2022-08-11T14:45:58.455Z,34.10
2022-08-11T14:48:23.718Z,34.20
2022-08-11T14:50:51.450Z,34.20
2022-08-11T14:53:22.392Z,34.00
2022-08-11T14:56:08.586Z,34.20
2022-08-11T14:58:43.081Z,34.30
2022-08-11T15:01:30.578Z,34.20
2022-08-11T15:04:34.033Z,33.70
2022-08-11T15:06:47.336Z,33.90
2022-08-11T15:09:15.081Z,34.10
2022-08-11T15:12:04.517Z,34.10
2022-08-11T15:14:55.790Z,34.10
2022-08-11T15:17:23.909Z,33.70
2022-08-11T15:20:18.298Z,34.20
2022-08-11T15:23:03.884Z,34.20
2022-08-11T15:25:34.639Z,33.90
2022-08-11T15:28:22.180Z,34.00
2022-08-11T15:31:12.867Z,33.90
2022-08-11T15:34:01.315Z,33.90
2022-08-11T15:36:50.541Z,33.70
2022-08-11T15:40:31.770Z,33.50
2022-08-11T15:43:29.366Z,33.30
2022-08-11T15:46:02.551Z,33.30
2022-08-11T15:48:32.598Z,33.50
2022-08-11T15:51:12.586Z,33.30
2022-08-11T15:53:56.505Z,33.30
2022-08-11T15:56:28.224Z,33.10
2022-08-11T15:59:41.101Z,33.40
2022-08-11T16:02:23.978Z,33.40
2022-08-11T16:04:52.854Z,33.20
2022-08-11T16:07:26.796Z,33.20
2022-08-11T16:10:00.549Z,32.90
2022-08-11T16:12:34.183Z,32.90
2022-08-11T16:15:29.448Z,33.00
2022-08-11T16:18:06.724Z,32.90
2022-08-11T16:20:34.865Z,32.90
2022-08-11T16:23:04.778Z,32.90
2022-08-11T16:27:03.086Z,33.00
2022-08-11T16:28:24.675Z,33.00
2022-08-11T16:30:53.426Z,32.90
2022-08-11T16:33:50.082Z,32.90
2022-08-11T16:36:31.757Z,32.90
2022-08-11T16:39:00.262Z,32.80
2022-08-11T16:41:49.369Z,32.70
2022-08-11T16:44:38.369Z,32.40
2022-08-11T16:47:07.817Z,32.40
2022-08-11T16:49:52.702Z,32.30
2022-08-11T16:52:22.042Z,32.40
2022-08-11T16:54:49.538Z,32.50
2022-08-11T16:57:44.183Z,32.40
2022-08-11T17:00:15.472Z,32.40
2022-08-11T17:03:15.612Z,32.20
2022-08-11T17:06:09.031Z,32.20
2022-08-11T17:09:13.525Z,32.30
2022-08-11T17:12:08.903Z,32.10
2022-08-11T17:14:43.701Z,32.00
2022-08-11T17:17:23.881Z,31.90
2022-08-11T17:20:42.089Z,31.80
2022-08-11T17:23:02.020Z,31.70
2022-08-11T17:25:32.331Z,31.60
2022-08-11T17:28:24.430Z,31.60
2022-08-11T17:31:22.803Z,31.60
2022-08-11T17:34:10.058Z,31.50
2022-08-11T17:36:41.667Z,31.40
2022-08-11T17:39:13.239Z,31.30
2022-08-11T17:42:07.787Z,31.40
2022-08-11T17:44:54.509Z,31.20
2022-08-11T17:47:43.186Z,31.00
2022-08-11T17:50:17.124Z,30.80
2022-08-11T17:53:05.704Z,30.80
2022-08-11T17:55:55.897Z,30.90
2022-08-11T17:58:44.684Z,30.70
2022-08-11T18:01:13.048Z,30.60
2022-08-11T18:03:57.309Z,30.60
2022-08-11T18:06:33.997Z,30.60
2022-08-11T18:09:22.997Z,30.50
2022-08-11T18:12:12.694Z,30.40
2022-08-11T18:15:02.650Z,30.30
2022-08-11T18:17:48.581Z,30.10
2022-08-11T18:20:34.466Z,30.10
2022-08-11T18:23:42.032Z,30.10
2022-08-11T18:26:31.735Z,30.10
2022-08-11T18:29:18.909Z,29.90
2022-08-11T18:32:08.599Z,29.90
2022-08-11T18:34:59.156Z,29.80
2022-08-11T18:37:49.617Z,29.80
2022-08-11T18:40:45.990Z,29.50
2022-08-11T18:43:33.903Z,29.40
2022-08-11T18:46:26.101Z,29.30
2022-08-11T18:49:21.900Z,29.30
2022-08-11T18:52:11.123Z,29.10
2022-08-11T18:55:00.112Z,28.80
2022-08-11T18:57:49.944Z,28.70
2022-08-11T19:00:41.868Z,28.70
2022-08-11T19:03:30.973Z,28.60
2022-08-11T19:06:38.931Z,28.50
2022-08-11T19:09:30.878Z,28.40
2022-08-11T19:12:18.395Z,28.30
2022-08-11T19:15:06.786Z,28.20
2022-08-11T19:17:54.923Z,28.10
2022-08-11T19:20:43.879Z,28.00
2022-08-11T19:23:33.465Z,27.90
2022-08-11T19:26:20.492Z,27.80
2022-08-11T19:29:08.241Z,27.80
2022-08-11T19:31:56.844Z,27.70
2022-08-11T19:34:44.013Z,27.70
2022-08-11T19:37:32.334Z,27.60
2022-08-11T19:40:26.828Z,27.60
2022-08-11T19:43:24.522Z,27.50
2022-08-11T19:46:15.438Z,27.50
2022-08-11T19:49:04.006Z,27.40
2022-08-11T19:51:54.281Z,27.20
2022-08-11T19:54:47.722Z,27.00
2022-08-11T19:57:39.279Z,27.00
2022-08-11T20:00:33.365Z,27.00
2022-08-11T20:03:22.257Z,26.80
2022-08-11T20:06:08.599Z,26.80
2022-08-11T20:08:58.879Z,26.80
2022-08-11T20:11:49.072Z,26.70
2022-08-11T20:14:37.419Z,26.50
2022-08-11T20:17:25.450Z,26.50
2022-08-11T20:20:12.285Z,26.30
2022-08-11T20:22:59.779Z,26.30
2022-08-11T20:25:48.242Z,26.30
2022-08-11T20:28:38.291Z,26.30
2022-08-11T20:31:26.450Z,26.40
2022-08-11T20:34:15.868Z,26.30
2022-08-11T20:37:04.606Z,26.30
2022-08-11T20:39:53.218Z,26.20
2022-08-11T20:42:39.603Z,26.20
2022-08-11T20:45:28.835Z,26.20
2022-08-11T20:48:16.291Z,26.10
2022-08-11T20:51:07.208Z,26.00
2022-08-11T20:53:59.564Z,26.00
2022-08-11T20:56:54.130Z,26.00
2022-08-11T20:59:49.450Z,25.80
2022-08-11T21:02:44.527Z,25.70
2022-08-11T21:06:08.934Z,25.80
2022-08-11T21:08:38.466Z,25.80
2022-08-11T21:11:29.086Z,25.70
2022-08-11T21:14:17.646Z,25.50
2022-08-11T21:17:27.611Z,25.50
2022-08-11T21:20:21.151Z,25.40
2022-08-11T21:23:23.332Z,25.40
2022-08-11T21:26:17.121Z,25.40
2022-08-11T21:29:04.028Z,25.30
2022-08-11T21:31:53.416Z,25.20
2022-08-11T21:34:41.153Z,25.00
2022-08-11T21:37:28.990Z,24.90
2022-08-11T21:40:20.334Z,24.90
2022-08-11T21:43:09.127Z,24.70
2022-08-11T21:45:59.488Z,24.60
2022-08-11T21:48:46.189Z,24.50
2022-08-11T21:51:31.823Z,24.50
2022-08-11T21:54:19.312Z,24.40
2022-08-11T21:57:09.496Z,24.40
2022-08-11T22:00:14.020Z,24.30
2022-08-11T22:03:04.846Z,24.40
2022-08-11T22:05:53.069Z,24.40
2022-08-11T22:08:39.605Z,24.20
2022-08-11T22:11:32.429Z,24.30
2022-08-11T22:14:22.062Z,24.10
2022-08-11T22:17:08.053Z,24.00
2022-08-11T22:19:56.120Z,23.90
2022-08-11T22:22:52.047Z,23.80
2022-08-11T22:25:50.730Z,23.70
2022-08-11T22:28:37.800Z,23.80
2022-08-11T22:31:25.526Z,23.70
2022-08-11T22:34:11.384Z,23.60
2022-08-11T22:36:59.111Z,23.70
2022-08-11T22:40:00.006Z,23.60
2022-08-11T22:42:48.349Z,23.70
2022-08-11T22:45:34.179Z,23.60
2022-08-11T22:48:23.231Z,23.60
2022-08-11T22:51:10.553Z,23.50
2022-08-11T22:53:58.393Z,23.60
2022-08-11T22:56:49.569Z,23.40
2022-08-11T22:59:36.215Z,23.40
2022-08-11T23:02:24.211Z,23.40
2022-08-11T23:05:11.334Z,23.40
2022-08-11T23:07:57.763Z,23.20
2022-08-11T23:10:45.340Z,23.20
2022-08-11T23:13:32.370Z,23.20
2022-08-11T23:16:18.487Z,23.10
2022-08-11T23:19:05.699Z,23.00
2022-08-11T23:21:53.388Z,23.00
2022-08-11T23:24:40.590Z,22.90
2022-08-11T23:27:28.590Z,22.90
2022-08-11T23:30:18.734Z,22.90
2022-08-11T23:33:07.029Z,22.80
2022-08-11T23:35:57.906Z,22.90
2022-08-11T23:38:43.864Z,22.90
2022-08-11T23:41:33.721Z,23.00
2022-08-11T23:44:24.543Z,22.80
2022-08-11T23:47:18.595Z,22.70
2022-08-11T23:50:09.448Z,22.70
2022-08-11T23:52:55.926Z,22.60
2022-08-11T23:55:41.580Z,22.50
2022-08-11T23:58:29.516Z,22.40
